createdAt,value
2017-08-03T00:00:01.712Z,26.67
2017-08-03T00:02:26.159Z,26.66
2017-08-03T00:04:42.139Z,26.85
2017-08-03T00:07:06.600Z,26.71
2017-08-03T00:09:31.067Z,26.7
2017-08-03T00:11:47.072Z,26.78
2017-08-03T00:14:11.518Z,26.81
2017-08-03T00:16:35.980Z,26.93
2017-08-03T00:19:00.442Z,26.86
2017-08-03T00:21:24.895Z,26.83
2017-08-03T00:23:49.373Z,26.88
2017-08-03T00:26:13.832Z,26.97
2017-08-03T00:28:38.287Z,26.91
2017-08-03T00:30:54.293Z,26.86
2017-08-03T00:33:18.774Z,26.66
2017-08-03T00:35:43.199Z,26.71
2017-08-03T00:38:07.659Z,26.92
2017-08-03T00:40:32.109Z,26.96
2017-08-03T00:42:48.123Z,26.89
2017-08-03T00:45:12.589Z,26.82
2017-08-03T00:47:37.061Z,26.91
2017-08-03T00:50:01.555Z,27
2017-08-03T00:52:17.578Z,27
2017-08-03T00:54:42.059Z,27
2017-08-03T00:57:06.518Z,26.96
2017-08-03T00:59:30.984Z,26.98
2017-08-03T01:01:55.422Z,26.83
2017-08-03T01:04:19.904Z,26.78
2017-08-03T01:06:44.380Z,26.92
2017-08-03T01:09:00.354Z,26.81
2017-08-03T01:11:24.801Z,26.88
2017-08-03T01:13:49.256Z,26.78
2017-08-03T01:16:13.706Z,26.81
2017-08-03T01:18:29.702Z,26.66
2017-08-03T01:20:54.130Z,26.52
2017-08-03T01:23:10.112Z,26.67
2017-08-03T01:25:17.569Z,26.71
2017-08-03T01:27:41.995Z,26.78
2017-08-03T01:30:06.414Z,26.85
2017-08-03T01:32:30.850Z,26.79
2017-08-03T01:34:38.384Z,26.82
2017-08-03T01:36:54.359Z,26.83
2017-08-03T01:39:10.311Z,26.82
2017-08-03T01:41:26.290Z,26.85
2017-08-03T01:43:50.749Z,26.89
2017-08-03T01:46:15.155Z,26.89
2017-08-03T01:48:39.587Z,26.91
2017-08-03T01:51:04.031Z,26.96
2017-08-03T01:53:28.457Z,27
2017-08-03T01:55:52.901Z,26.93
2017-08-03T01:58:00.429Z,26.96
2017-08-03T02:00:24.875Z,26.82
2017-08-03T02:02:26.368Z,26.86
2017-08-03T02:04:50.843Z,26.97
2017-08-03T02:07:15.296Z,26.97
2017-08-03T02:09:39.752Z,26.93
2017-08-03T02:12:04.217Z,26.96
2017-08-03T02:14:20.202Z,26.86
2017-08-03T02:16:44.664Z,26.86
2017-08-03T02:19:09.105Z,26.92
2017-08-03T02:21:33.513Z,26.79
2017-08-03T02:23:41.054Z,26.82
2017-08-03T02:26:05.488Z,26.83
2017-08-03T02:28:29.918Z,26.86
2017-08-03T02:30:54.350Z,26.83
2017-08-03T02:33:10.335Z,26.74
2017-08-03T02:35:34.801Z,26.67
2017-08-03T02:37:59.242Z,26.52
2017-08-03T02:40:15.194Z,26.53
2017-08-03T02:42:39.632Z,26.34
2017-08-03T02:44:55.571Z,26.19
2017-08-03T02:47:11.478Z,26.3
2017-08-03T02:49:35.858Z,26.44
2017-08-03T02:51:51.810Z,26.3
2017-08-03T02:54:16.224Z,26.37
2017-08-03T02:56:40.631Z,26.39
2017-08-03T02:58:56.526Z,26.37
2017-08-03T03:01:12.470Z,26.36
2017-08-03T03:03:36.858Z,26.33
2017-08-03T03:06:01.280Z,26.15
2017-08-03T03:08:08.757Z,26.24
2017-08-03T03:10:33.178Z,26.22
2017-08-03T03:12:49.077Z,26.18
2017-08-03T03:15:05.001Z,25.96
2017-08-03T03:17:29.375Z,26.22
2017-08-03T03:19:53.768Z,25.91
2017-08-03T03:22:18.169Z,25.93
2017-08-03T03:24:42.578Z,25.96
2017-08-03T03:27:06.955Z,26.06
2017-08-03T03:29:31.355Z,26.16
2017-08-03T03:31:55.696Z,26.04
2017-08-03T03:34:11.599Z,26.1
2017-08-03T03:36:35.992Z,26.03
2017-08-03T03:38:51.896Z,26.07
2017-08-03T03:40:54.568Z,26.19
2017-08-03T03:43:16.866Z,25.99
2017-08-03T03:45:24.352Z,26.03
2017-08-03T03:47:40.297Z,25.86
2017-08-03T03:50:04.667Z,25.8
2017-08-03T03:52:29.045Z,25.85
2017-08-03T03:54:44.948Z,25.55
2017-08-03T03:57:09.278Z,25.61
2017-08-03T03:59:33.573Z,25.59
2017-08-03T04:01:49.450Z,25.68
2017-08-03T04:04:05.355Z,25.56
2017-08-03T04:06:29.705Z,25.52
2017-08-03T04:08:45.594Z,25.51
2017-08-03T04:11:09.946Z,25.73
2017-08-03T04:13:34.266Z,25.7
2017-08-03T04:15:50.170Z,25.74
2017-08-03T04:18:14.548Z,25.76
2017-08-03T04:20:30.448Z,25.63
2017-08-03T04:22:54.811Z,25.67
2017-08-03T04:25:10.701Z,25.68
2017-08-03T04:27:35.097Z,25.56
2017-08-03T04:29:50.957Z,25.59
2017-08-03T04:32:15.289Z,25.71
2017-08-03T04:34:39.643Z,25.26
2017-08-03T04:37:04.029Z,25.56
2017-08-03T04:39:19.935Z,25.73
2017-08-03T04:41:35.839Z,25.7
2017-08-03T04:43:51.770Z,25.61
2017-08-03T04:45:59.216Z,25.52
2017-08-03T04:48:23.570Z,25.63
2017-08-03T04:50:47.929Z,25.78
2017-08-03T04:53:12.288Z,25.83
2017-08-03T04:55:28.166Z,25.68
2017-08-03T04:57:52.521Z,25.88
2017-08-03T05:00:16.886Z,26.01
2017-08-03T05:02:41.262Z,25.99
2017-08-03T05:05:05.634Z,26.03
2017-08-03T05:07:29.970Z,26.08
2017-08-03T05:09:54.347Z,26.07
2017-08-03T05:12:10.250Z,25.95
2017-08-03T05:14:34.610Z,25.71
2017-08-03T05:16:58.996Z,26.19
2017-08-03T05:19:23.404Z,26.51
2017-08-03T05:21:39.367Z,26.46
2017-08-03T05:24:03.708Z,26.45
2017-08-03T05:26:28.100Z,26.56
2017-08-03T05:28:52.548Z,26.68
2017-08-03T05:31:16.978Z,26.97
2017-08-03T05:33:41.426Z,27.04
2017-08-03T05:36:05.885Z,27.29
2017-08-03T05:38:30.318Z,27.1
2017-08-03T05:40:46.342Z,27.41
2017-08-03T05:43:10.796Z,27.71
2017-08-03T05:45:35.260Z,27.71
2017-08-03T05:47:37.237Z,27.81
2017-08-03T05:49:53.287Z,27.5
2017-08-03T05:52:17.798Z,27.41
2017-08-03T05:54:42.263Z,27.44
2017-08-03T05:56:58.249Z,27.4
2017-08-03T05:59:14.286Z,27.4
2017-08-03T06:01:30.315Z,27.22
2017-08-03T06:03:54.833Z,27.19
2017-08-03T06:06:19.292Z,26.83
2017-08-03T06:08:43.750Z,26.86
2017-08-03T06:11:08.219Z,26.82
2017-08-03T06:13:32.742Z,26.74
2017-08-03T06:15:40.251Z,26.78
2017-08-03T06:17:56.248Z,26.56
2017-08-03T06:20:12.221Z,26.53
2017-08-03T06:22:36.650Z,26.7
2017-08-03T06:25:01.096Z,26.73
2017-08-03T06:27:25.557Z,26.83
2017-08-03T06:29:41.552Z,26.63
2017-08-03T06:32:06.014Z,26.51
2017-08-03T06:34:30.491Z,26.51
2017-08-03T06:36:54.903Z,26.29
2017-08-03T06:39:19.345Z,26.19
2017-08-03T06:41:04.183Z,26.18
2017-08-03T06:43:28.648Z,26.41
2017-08-03T06:45:44.626Z,26.45
2017-08-03T06:48:09.014Z,26.51
2017-08-03T06:50:24.972Z,26.39
2017-08-03T06:52:35.493Z,26.36
2017-08-03T06:54:59.915Z,26.33
2017-08-03T06:57:24.326Z,26.52
2017-08-03T06:59:48.761Z,26.64
2017-08-03T07:02:13.123Z,26.45
2017-08-03T07:04:29.067Z,26.48
2017-08-03T07:06:53.469Z,26.53
2017-08-03T07:09:17.886Z,26.68
2017-08-03T07:11:42.292Z,26.76
2017-08-03T07:14:06.672Z,26.67
2017-08-03T07:16:31.091Z,26.97
2017-08-03T07:18:55.570Z,27.33
2017-08-03T07:21:20.005Z,27.38
2017-08-03T07:23:44.490Z,27.55
2017-08-03T07:26:08.876Z,27.68
2017-08-03T07:28:33.360Z,27.82
2017-08-03T07:30:57.869Z,27.86
2017-08-03T07:33:22.395Z,27.72
2017-08-03T07:35:46.863Z,27.81
2017-08-03T07:38:11.378Z,27.88
2017-08-03T07:40:35.973Z,27.79
2017-08-03T07:43:00.485Z,27.64
2017-08-03T07:45:24.898Z,27.26
2017-08-03T07:47:49.381Z,27.2
2017-08-03T07:50:13.879Z,27.3
2017-08-03T07:52:38.367Z,27.68
2017-08-03T07:55:02.957Z,27.88
2017-08-03T07:57:27.406Z,27.75
2017-08-03T07:59:43.529Z,27.79
2017-08-03T08:02:07.997Z,27.78
2017-08-03T08:04:32.426Z,27.88
2017-08-03T08:06:56.948Z,28.1
2017-08-03T08:09:07.509Z,28.33
2017-08-03T08:11:32.089Z,28.52
2017-08-03T08:13:56.660Z,28.31
2017-08-03T08:16:27.872Z,28.43
2017-08-03T08:18:52.446Z,28.68
2017-08-03T08:20:54.552Z,28.96
2017-08-03T08:23:19.131Z,29.53
2017-08-03T08:25:43.773Z,29.89
2017-08-03T08:27:59.882Z,29.98
2017-08-03T08:30:24.558Z,30.7
2017-08-03T08:32:49.346Z,31.47
2017-08-03T08:35:14.102Z,31.72
2017-08-03T08:37:38.972Z,31.57
2017-08-03T08:40:03.730Z,30.8
2017-08-03T08:42:28.734Z,30.24
2017-08-03T08:44:53.435Z,30.24
2017-08-03T08:47:18.146Z,29.77
2017-08-03T08:49:43.009Z,29.64
2017-08-03T08:52:07.673Z,30.11
2017-08-03T08:54:32.290Z,31.57
2017-08-03T08:56:57.257Z,33.29
2017-08-03T08:59:22.054Z,34.09
2017-08-03T09:01:46.877Z,34
2017-08-03T09:04:11.748Z,33.89
2017-08-03T09:06:36.827Z,34.63
2017-08-03T09:09:01.874Z,36.65
2017-08-03T09:11:26.970Z,37.03
2017-08-03T09:13:52.125Z,38.76
2017-08-03T09:16:17.388Z,38.79
2017-08-03T09:18:42.682Z,37.85
2017-08-03T09:21:08.047Z,36.44
2017-08-03T09:23:33.344Z,36.01
2017-08-03T09:25:58.668Z,35.86
2017-08-03T09:28:23.958Z,37.88
2017-08-03T09:30:49.334Z,40.1
2017-08-03T09:33:14.763Z,40.81
2017-08-03T09:35:40.218Z,40.51
2017-08-03T09:38:05.754Z,38.32
2017-08-03T09:40:22.768Z,37.83
2017-08-03T09:42:48.272Z,37
2017-08-03T09:45:05.236Z,37.88
2017-08-03T09:47:30.728Z,38.01
2017-08-03T09:49:56.222Z,37.91
2017-08-03T09:52:21.749Z,38
2017-08-03T09:54:47.238Z,37.25
2017-08-03T09:57:12.742Z,39.04
2017-08-03T09:59:38.154Z,40.55
2017-08-03T10:02:03.656Z,41.53
2017-08-03T10:04:29.310Z,41
2017-08-03T10:06:55.007Z,40.04
2017-08-03T10:09:20.712Z,39.15
2017-08-03T10:11:46.400Z,41.22
2017-08-03T10:13:48.696Z,39.26
2017-08-03T10:16:14.559Z,39.07
2017-08-03T10:18:40.162Z,38.56
2017-08-03T10:21:06.058Z,39.38
2017-08-03T10:23:31.809Z,39.29
2017-08-03T10:25:57.275Z,39.15
2017-08-03T10:28:22.899Z,39.11
2017-08-03T10:30:48.510Z,38
2017-08-03T10:33:14.198Z,39.12
2017-08-03T10:35:39.856Z,38.56
2017-08-03T10:38:05.422Z,37.82
2017-08-03T10:40:31.025Z,37.82
2017-08-03T10:42:56.608Z,36.89
2017-08-03T10:45:22.117Z,36.25
2017-08-03T10:47:47.606Z,36.48
2017-08-03T10:50:13.079Z,35.93
2017-08-03T10:52:29.958Z,35.54
2017-08-03T10:54:55.387Z,35.42
2017-08-03T10:57:12.241Z,35.79
2017-08-03T10:59:37.646Z,35.71
2017-08-03T11:02:02.971Z,35.18
2017-08-03T11:04:28.282Z,34.91
2017-08-03T11:06:53.577Z,34.98
2017-08-03T11:09:19.052Z,35.79
2017-08-03T11:11:44.276Z,35.52
2017-08-03T11:14:09.646Z,35.64
2017-08-03T11:16:34.949Z,35.84
2017-08-03T11:19:00.279Z,35.61
2017-08-03T11:21:25.610Z,35.76
2017-08-03T11:23:47.167Z,35.26
2017-08-03T11:26:12.541Z,35.34
2017-08-03T11:28:37.868Z,35.07
2017-08-03T11:31:03.159Z,34.56
2017-08-03T11:33:28.434Z,34.55
2017-08-03T11:35:53.651Z,34.03
2017-08-03T11:37:55.810Z,34.43
2017-08-03T11:40:21.058Z,33.72
2017-08-03T11:42:46.267Z,33.08
2017-08-03T11:45:11.434Z,32.94
2017-08-03T11:47:28.163Z,33.61
2017-08-03T11:49:53.461Z,33.32
2017-08-03T11:52:18.383Z,33.12
2017-08-03T11:54:28.745Z,33.82
2017-08-03T11:56:53.750Z,34.38
2017-08-03T11:59:18.934Z,34.71
2017-08-03T12:01:43.999Z,34.51
2017-08-03T12:04:09.189Z,34.26
2017-08-03T12:06:34.172Z,34.26
2017-08-03T12:08:59.504Z,33.79
2017-08-03T12:11:24.689Z,33.98
2017-08-03T12:13:49.617Z,33.81
2017-08-03T12:16:14.752Z,34.16
2017-08-03T12:18:39.894Z,34.35
2017-08-03T12:21:05.092Z,34.48
2017-08-03T12:23:30.220Z,34.5
2017-08-03T12:25:55.500Z,34.38
2017-08-03T12:28:12.120Z,34.35
2017-08-03T12:30:37.281Z,34.55
2017-08-03T12:33:02.460Z,34.09
2017-08-03T12:35:27.663Z,34.19
2017-08-03T12:37:52.737Z,34.14
2017-08-03T12:40:17.856Z,34.02
2017-08-03T12:42:43.018Z,34.09
2017-08-03T12:45:08.045Z,34.33
2017-08-03T12:47:33.169Z,34.48
2017-08-03T12:49:58.299Z,34.66
2017-08-03T12:52:23.332Z,35.13
2017-08-03T12:54:48.504Z,35.74
2017-08-03T12:57:13.582Z,35.72
2017-08-03T12:59:38.800Z,35.05
2017-08-03T13:02:03.895Z,34.71
2017-08-03T13:04:29.065Z,34.69
2017-08-03T13:06:54.300Z,35
2017-08-03T13:09:19.484Z,35.26
2017-08-03T13:11:44.711Z,35.49
2017-08-03T13:14:01.477Z,35.04
2017-08-03T13:16:26.743Z,35.05
2017-08-03T13:18:43.509Z,35.07
2017-08-03T13:21:08.719Z,34.59
2017-08-03T13:23:33.966Z,34.51
2017-08-03T13:25:59.219Z,34.58
2017-08-03T13:28:24.525Z,34.66
2017-08-03T13:30:49.816Z,34.53
2017-08-03T13:33:15.073Z,34.43
2017-08-03T13:35:40.285Z,34.28
2017-08-03T13:38:05.461Z,34.11
2017-08-03T13:40:30.642Z,34.11
2017-08-03T13:42:55.785Z,33.44
2017-08-03T13:45:20.920Z,33.03
2017-08-03T13:47:45.893Z,32.81
2017-08-03T13:50:10.944Z,32.49
2017-08-03T13:52:36.005Z,32.44
2017-08-03T13:55:01.023Z,32.41
2017-08-03T13:57:26.060Z,32.48
2017-08-03T13:59:51.063Z,32.6
2017-08-03T14:02:16.054Z,32.83
2017-08-03T14:04:41.072Z,33.17
2017-08-03T14:06:17.423Z,33.32
2017-08-03T14:08:42.494Z,33.63
2017-08-03T14:10:59.056Z,34.06
2017-08-03T14:13:24.177Z,34.38
2017-08-03T14:15:49.239Z,34.43
2017-08-03T14:18:14.295Z,34.43
2017-08-03T14:20:39.438Z,34.63
2017-08-03T14:23:04.439Z,34.53
2017-08-03T14:25:29.552Z,34.62
2017-08-03T14:27:54.789Z,34.65
2017-08-03T14:30:19.774Z,34.98
2017-08-03T14:32:44.963Z,34.98
2017-08-03T14:35:10.097Z,34.96
2017-08-03T14:37:35.341Z,35
2017-08-03T14:40:00.351Z,35.26
2017-08-03T14:42:25.549Z,35.15
2017-08-03T14:44:50.761Z,35.69
2017-08-03T14:47:15.949Z,35.49
2017-08-03T14:49:41.182Z,35.25
2017-08-03T14:52:06.539Z,34.85
2017-08-03T14:54:31.631Z,34.71
2017-08-03T14:56:56.766Z,35.03
2017-08-03T14:59:21.915Z,34.73
2017-08-03T15:01:47.131Z,34.43
2017-08-03T15:04:12.340Z,33.81
2017-08-03T15:06:37.496Z,34.03
2017-08-03T15:09:02.667Z,34.21
2017-08-03T15:11:27.765Z,34.4
2017-08-03T15:13:53.127Z,34.37
2017-08-03T15:16:18.145Z,34.24
2017-08-03T15:18:43.313Z,34
2017-08-03T15:21:08.446Z,34.14
2017-08-03T15:23:33.458Z,34.25
2017-08-03T15:25:58.550Z,33.87
2017-08-03T15:28:23.597Z,33.72
2017-08-03T15:30:48.635Z,33.69
2017-08-03T15:32:59.290Z,33.51
2017-08-03T15:35:15.916Z,33.79
2017-08-03T15:37:40.957Z,33.57
2017-08-03T15:40:06.037Z,33
2017-08-03T15:42:31.059Z,33.16
2017-08-03T15:44:56.199Z,33.03
2017-08-03T15:47:21.170Z,32.93
2017-08-03T15:49:46.210Z,33.12
2017-08-03T15:52:11.191Z,32.86
2017-08-03T15:54:36.218Z,32.95
2017-08-03T15:57:01.250Z,32.83
2017-08-03T15:59:26.256Z,32.68
2017-08-03T16:01:51.264Z,32.61
2017-08-03T16:04:16.216Z,32.63
2017-08-03T16:06:41.170Z,32.54
2017-08-03T16:09:06.221Z,32.59
2017-08-03T16:13:10.896Z,32.6
2017-08-03T16:15:36.031Z,32.56
2017-08-03T16:18:01.080Z,32.38
2017-08-03T16:20:20.277Z,32.53
2017-08-03T16:22:45.225Z,32.49
2017-08-03T16:25:10.168Z,32.35
2017-08-03T16:27:35.118Z,32.51
2017-08-03T16:30:00.418Z,32.66
2017-08-03T16:32:25.531Z,32.79
2017-08-03T16:34:51.039Z,32.83
2017-08-03T16:37:16.186Z,32.75
2017-08-03T16:39:41.241Z,32.79
2017-08-03T16:42:06.431Z,32.51
2017-08-03T16:44:18.389Z,32.45
2017-08-03T16:46:29.177Z,32.45
2017-08-03T16:48:54.273Z,32.27
2017-08-03T16:51:19.331Z,32.38
2017-08-03T16:53:44.316Z,32.31
2017-08-03T16:56:09.248Z,31.98
2017-08-03T16:58:34.193Z,31.69
2017-08-03T17:00:59.097Z,31.6
2017-08-03T17:03:01.231Z,31.52
2017-08-03T17:05:26.161Z,31.6
2017-08-03T17:07:28.256Z,31.66
2017-08-03T17:09:53.248Z,31.95
2017-08-03T17:12:18.112Z,32.16
2017-08-03T17:14:43.009Z,32.29
2017-08-03T17:17:07.913Z,32.08
2017-08-03T17:19:32.792Z,31.95
2017-08-03T17:21:57.747Z,32.11
2017-08-03T17:24:22.693Z,32.09
2017-08-03T17:26:47.662Z,31.92
2017-08-03T17:29:12.616Z,31.92
2017-08-03T17:31:29.075Z,31.7
2017-08-03T17:33:54.004Z,31.59
2017-08-03T17:36:04.653Z,31.45
2017-08-03T17:38:21.093Z,31.57
2017-08-03T17:40:37.486Z,31.26
2017-08-03T17:43:02.355Z,31.17
2017-08-03T17:45:27.218Z,31.2
2017-08-03T17:47:52.129Z,31.44
2017-08-03T17:50:17.008Z,31.37
2017-08-03T17:52:41.913Z,31.48
2017-08-03T17:55:06.742Z,31.44
2017-08-03T17:57:31.598Z,31.52
2017-08-03T17:59:39.489Z,31.47
2017-08-03T18:01:55.968Z,31.57
2017-08-03T18:04:20.998Z,31.52
2017-08-03T18:06:45.863Z,31.59
2017-08-03T18:09:10.852Z,31.26
2017-08-03T18:11:35.748Z,31.35
2017-08-03T18:14:00.544Z,31.18
2017-08-03T18:16:21.336Z,31.2
2017-08-03T18:18:46.193Z,31.13
2017-08-03T18:21:11.046Z,30.98
2017-08-03T18:23:35.789Z,30.89
2017-08-03T18:26:01.010Z,30.91
2017-08-03T18:28:26.194Z,30.86
2017-08-03T18:30:43.672Z,30.85
2017-08-03T18:33:08.865Z,30.65
2017-08-03T18:35:25.821Z,30.85
2017-08-03T18:37:51.017Z,30.77
2017-08-03T18:40:15.926Z,30.65
2017-08-03T18:42:40.764Z,30.49
2017-08-03T18:45:05.597Z,30.51
2017-08-03T18:47:30.557Z,30.58
2017-08-03T18:49:55.324Z,30.48
2017-08-03T18:52:20.110Z,30.24
2017-08-03T18:54:44.992Z,30.27
2017-08-03T18:57:09.847Z,30.18
2017-08-03T18:59:11.905Z,30.17
2017-08-03T19:01:36.740Z,30.1
2017-08-03T19:04:01.525Z,30.06
2017-08-03T19:06:26.372Z,29.89
2017-08-03T19:08:02.761Z,29.98
2017-08-03T19:10:27.544Z,29.94
2017-08-03T19:12:52.717Z,29.79
2017-08-03T19:15:17.610Z,29.76
2017-08-03T19:17:02.705Z,29.83
2017-08-03T19:19:27.705Z,29.73
2017-08-03T19:21:52.408Z,29.65
2017-08-03T19:24:17.107Z,29.61
2017-08-03T19:26:42.003Z,29.64
2017-08-03T19:29:07.071Z,29.61
2017-08-03T19:31:34.856Z,29.43
2017-08-03T19:34:00.589Z,29.28
2017-08-03T19:36:25.481Z,29.25
2017-08-03T19:38:36.594Z,29.28
2017-08-03T19:41:01.470Z,29.2
2017-08-03T19:42:37.804Z,29.25
2017-08-03T19:45:02.556Z,28.94
2017-08-03T19:47:27.385Z,28.86
2017-08-03T19:49:52.191Z,28.9
2017-08-03T19:52:16.922Z,28.9
2017-08-03T19:54:42.001Z,28.86
2017-08-03T19:57:06.696Z,28.78
2017-08-03T19:59:31.652Z,28.68
2017-08-03T20:01:56.343Z,28.74
2017-08-03T20:04:21.060Z,28.72
2017-08-03T20:06:45.727Z,28.53
2017-08-03T20:09:10.362Z,28.5
2017-08-03T20:11:35.009Z,28.28
2017-08-03T20:15:36.348Z,28.27
2017-08-03T20:18:00.828Z,28.19
2017-08-03T20:20:25.498Z,28.15
2017-08-03T20:22:50.134Z,28.28
2017-08-03T20:24:52.308Z,28.28
2017-08-03T20:27:17.135Z,28.28
2017-08-03T20:29:42.451Z,28.23
2017-08-03T20:32:07.206Z,28.16
2017-08-03T20:34:31.900Z,28.04
2017-08-03T20:36:56.888Z,28.2
2017-08-03T20:39:21.627Z,28.12
2017-08-03T20:41:46.372Z,28.22
2017-08-03T20:44:11.218Z,28.03
2017-08-03T20:46:36.073Z,28.03
2017-08-03T20:50:38.304Z,27.85
2017-08-03T20:53:03.385Z,27.94
2017-08-03T20:55:27.918Z,27.95
2017-08-03T20:57:52.473Z,28
2017-08-03T21:00:17.164Z,27.94
2017-08-03T21:02:41.812Z,27.85
2017-08-03T21:05:06.578Z,27.76
2017-08-03T21:07:31.065Z,27.71
2017-08-03T21:09:55.628Z,27.79
2017-08-03T21:12:20.355Z,27.72
2017-08-03T21:14:45.044Z,27.82
2017-08-03T21:16:56.123Z,27.67
2017-08-03T21:19:21.295Z,27.71
2017-08-03T21:21:45.837Z,27.66
2017-08-03T21:24:10.658Z,27.55
2017-08-03T21:26:35.213Z,27.68
2017-08-03T21:28:59.985Z,27.57
2017-08-03T21:31:24.841Z,27.55
2017-08-03T21:33:49.363Z,27.26
2017-08-03T21:36:14.067Z,27.45
2017-08-03T21:38:38.562Z,27.37
2017-08-03T21:40:54.631Z,27.3
2017-08-03T21:43:19.134Z,27.33
2017-08-03T21:45:43.569Z,27.38
2017-08-03T21:48:08.159Z,27.29
2017-08-03T21:50:32.914Z,27
2017-08-03T21:52:58.228Z,27.04
2017-08-03T21:55:23.122Z,27.13
2017-08-03T21:57:47.567Z,26.96
2017-08-03T22:00:12.539Z,27.03
2017-08-03T22:02:36.998Z,26.91
2017-08-03T22:05:01.712Z,27.01
2017-08-03T22:07:26.450Z,27.16
2017-08-03T22:09:51.143Z,27.18
2017-08-03T22:12:15.945Z,27.05
2017-08-03T22:14:40.928Z,26.92
2017-08-03T22:17:05.437Z,26.97
2017-08-03T22:19:30.355Z,26.96
2017-08-03T22:21:55.032Z,27.01
2017-08-03T22:23:31.379Z,26.96
2017-08-03T22:25:55.880Z,27
2017-08-03T22:28:20.592Z,26.96
2017-08-03T22:30:45.144Z,26.92
2017-08-03T22:33:01.124Z,26.83
2017-08-03T22:35:25.588Z,26.89
2017-08-03T22:37:49.998Z,26.92
2017-08-03T22:40:14.658Z,26.97
2017-08-03T22:42:40.046Z,26.92
2017-08-03T22:45:04.749Z,26.79
2017-08-03T22:47:29.209Z,26.82
2017-08-03T22:49:53.684Z,26.78
2017-08-03T22:52:18.139Z,26.81
2017-08-03T22:54:42.630Z,26.82
2017-08-03T22:57:07.084Z,26.88
2017-08-03T22:59:31.522Z,26.89
2017-08-03T23:01:55.950Z,26.83
2017-08-03T23:04:20.353Z,26.83
2017-08-03T23:06:44.798Z,26.85
2017-08-03T23:09:09.187Z,26.79
2017-08-03T23:11:33.628Z,26.76
2017-08-03T23:13:58.003Z,26.76
2017-08-03T23:15:59.967Z,26.76
2017-08-03T23:18:15.965Z,26.61
2017-08-03T23:20:40.352Z,26.73
2017-08-03T23:23:04.787Z,26.51
2017-08-03T23:25:29.221Z,26.53
2017-08-03T23:27:53.670Z,26.59
2017-08-03T23:30:18.106Z,26.51
2017-08-03T23:32:42.545Z,26.56
2017-08-03T23:35:06.982Z,26.66
2017-08-03T23:37:31.389Z,26.66
2017-08-03T23:39:55.843Z,26.52
2017-08-03T23:42:20.192Z,26.67
2017-08-03T23:44:44.646Z,26.55
2017-08-03T23:47:09.052Z,26.7
2017-08-03T23:49:33.480Z,26.71
2017-08-03T23:51:57.934Z,26.73
2017-08-03T23:54:22.384Z,26.64
2017-08-03T23:56:46.856Z,26.71
2017-08-03T23:59:11.299Z,26.73
